sensor_id;sensor_type;location;lat;lon;timestamp;pressure;altitude;pressure_sealevel;temperature;humidity
55801;BME280;41730;51.960;20.158;2023-03-20T00:01:19;100112.41;;;7.45;56.67
55801;BME280;41730;51.960;20.158;2023-03-20T00:03:49;100108.96;;;7.44;56.56
55801;BME280;41730;51.960;20.158;2023-03-20T00:06:20;100108.29;;;7.42;56.58
55801;BME280;41730;51.960;20.158;2023-03-20T00:08:50;100105.73;;;7.38;56.58
55801;BME280;41730;51.960;20.158;2023-03-20T00:11:27;100105.61;;;7.37;56.48
55801;BME280;41730;51.960;20.158;2023-03-20T00:13:59;100111.05;;;7.44;56.49
55801;BME280;41730;51.960;20.158;2023-03-20T00:16:30;100106.96;;;7.50;56.11
55801;BME280;41730;51.960;20.158;2023-03-20T00:19:00;100104.09;;;7.34;56.43
55801;BME280;41730;51.960;20.158;2023-03-20T00:21:30;100100.58;;;7.20;56.67
55801;BME280;41730;51.960;20.158;2023-03-20T00:24:00;100099.32;;;7.25;56.64
55801;BME280;41730;51.960;20.158;2023-03-20T00:26:33;100096.35;;;7.25;56.59
55801;BME280;41730;51.960;20.158;2023-03-20T00:29:04;100097.61;;;7.10;56.98
55801;BME280;41730;51.960;20.158;2023-03-20T00:31:35;100094.95;;;6.91;57.50
55801;BME280;41730;51.960;20.158;2023-03-20T00:34:09;100094.20;;;6.91;57.57
55801;BME280;41730;51.960;20.158;2023-03-20T00:36:40;100095.23;;;7.02;57.37
55801;BME280;41730;51.960;20.158;2023-03-20T00:39:09;100094.37;;;7.04;57.21
55801;BME280;41730;51.960;20.158;2023-03-20T00:41:42;100095.56;;;6.99;57.31
55801;BME280;41730;51.960;20.158;2023-03-20T00:44:20;100094.56;;;6.96;57.34
55801;BME280;41730;51.960;20.158;2023-03-20T00:46:52;100096.35;;;6.93;57.45
55801;BME280;41730;51.960;20.158;2023-03-20T00:49:23;100093.54;;;6.83;57.69
55801;BME280;41730;51.960;20.158;2023-03-20T00:51:53;100092.80;;;6.81;57.89
55801;BME280;41730;51.960;20.158;2023-03-20T00:54:22;100091.02;;;6.82;57.72
55801;BME280;41730;51.960;20.158;2023-03-20T00:56:55;100089.29;;;6.82;57.68
55801;BME280;41730;51.960;20.158;2023-03-20T00:59:28;100087.67;;;6.75;57.83
55801;BME280;41730;51.960;20.158;2023-03-20T01:01:59;100087.02;;;6.79;57.71
55801;BME280;41730;51.960;20.158;2023-03-20T01:04:33;100085.89;;;6.73;57.82
55801;BME280;41730;51.960;20.158;2023-03-20T01:07:03;100080.88;;;6.68;57.90
55801;BME280;41730;51.960;20.158;2023-03-20T01:09:33;100084.17;;;6.68;57.85
55801;BME280;41730;51.960;20.158;2023-03-20T01:12:03;100085.48;;;6.51;58.21
55801;BME280;41730;51.960;20.158;2023-03-20T01:14:35;100081.30;;;6.41;58.58
55801;BME280;41730;51.960;20.158;2023-03-20T01:17:04;100077.46;;;6.38;58.53
55801;BME280;41730;51.960;20.158;2023-03-20T01:19:33;100081.37;;;6.24;58.88
55801;BME280;41730;51.960;20.158;2023-03-20T01:22:01;100080.41;;;6.17;59.13
55801;BME280;41730;51.960;20.158;2023-03-20T01:24:31;100080.15;;;6.05;59.26
55801;BME280;41730;51.960;20.158;2023-03-20T01:27:00;100083.77;;;5.98;59.62
55801;BME280;41730;51.960;20.158;2023-03-20T01:29:31;100081.34;;;6.06;59.30
55801;BME280;41730;51.960;20.158;2023-03-20T01:32:00;100076.52;;;6.05;59.38
55801;BME280;41730;51.960;20.158;2023-03-20T01:34:29;100079.70;;;5.96;59.49
55801;BME280;41730;51.960;20.158;2023-03-20T01:36:58;100079.34;;;5.96;59.79
55801;BME280;41730;51.960;20.158;2023-03-20T01:39:31;100076.23;;;6.09;59.44
55801;BME280;41730;51.960;20.158;2023-03-20T01:42:02;100075.73;;;6.14;59.26
55801;BME280;41730;51.960;20.158;2023-03-20T01:44:34;100077.90;;;6.10;59.27
55801;BME280;41730;51.960;20.158;2023-03-20T01:47:16;100079.75;;;6.28;59.03
55801;BME280;41730;51.960;20.158;2023-03-20T01:50:24;100074.95;;;6.36;58.80
55801;BME280;41730;51.960;20.158;2023-03-20T01:53:08;100077.19;;;6.45;58.48
55801;BME280;41730;51.960;20.158;2023-03-20T01:55:39;100076.86;;;6.52;58.37
55801;BME280;41730;51.960;20.158;2023-03-20T01:58:14;100074.45;;;6.46;58.52
55801;BME280;41730;51.960;20.158;2023-03-20T02:00:45;100075.88;;;6.41;58.73
55801;BME280;41730;51.960;20.158;2023-03-20T02:03:16;100077.75;;;6.36;58.83
55801;BME280;41730;51.960;20.158;2023-03-20T02:05:47;100075.65;;;6.39;58.88
55801;BME280;41730;51.960;20.158;2023-03-20T02:08:22;100076.02;;;6.33;59.06
55801;BME280;41730;51.960;20.158;2023-03-20T02:10:54;100079.53;;;6.23;59.36
55801;BME280;41730;51.960;20.158;2023-03-20T02:13:24;100074.55;;;6.32;59.03
55801;BME280;41730;51.960;20.158;2023-03-20T02:15:57;100070.25;;;6.42;58.72
55801;BME280;41730;51.960;20.158;2023-03-20T02:18:27;100074.36;;;6.35;58.95
55801;BME280;41730;51.960;20.158;2023-03-20T02:27:31;100073.61;;;6.64;57.98
55801;BME280;41730;51.960;20.158;2023-03-20T02:30:47;100070.55;;;6.52;58.12
55801;BME280;41730;51.960;20.158;2023-03-20T02:33:50;100062.98;;;6.36;58.56
55801;BME280;41730;51.960;20.158;2023-03-20T02:36:58;100062.33;;;6.43;58.50
55801;BME280;41730;51.960;20.158;2023-03-20T02:40:06;100060.54;;;6.33;58.65
55801;BME280;41730;51.960;20.158;2023-03-20T02:42:43;100064.14;;;6.26;58.60
55801;BME280;41730;51.960;20.158;2023-03-20T02:45:17;100065.31;;;6.37;58.56
55801;BME280;41730;51.960;20.158;2023-03-20T02:47:53;100061.34;;;6.29;58.46
55801;BME280;41730;51.960;20.158;2023-03-20T02:50:30;100060.05;;;6.15;58.89
55801;BME280;41730;51.960;20.158;2023-03-20T02:53:08;100062.58;;;5.98;59.48
55801;BME280;41730;51.960;20.158;2023-03-20T02:55:46;100063.67;;;6.07;59.26
55801;BME280;41730;51.960;20.158;2023-03-20T02:58:22;100059.57;;;6.11;59.12
55801;BME280;41730;51.960;20.158;2023-03-20T03:00:57;100061.89;;;6.10;59.04
55801;BME280;41730;51.960;20.158;2023-03-20T03:03:32;100064.71;;;6.05;59.19
55801;BME280;41730;51.960;20.158;2023-03-20T03:06:08;100058.98;;;6.02;59.24
55801;BME280;41730;51.960;20.158;2023-03-20T03:08:42;100063.92;;;5.95;59.38
55801;BME280;41730;51.960;20.158;2023-03-20T03:11:12;100064.77;;;5.99;59.29
55801;BME280;41730;51.960;20.158;2023-03-20T03:13:43;100062.00;;;5.92;59.38
55801;BME280;41730;51.960;20.158;2023-03-20T03:16:18;100059.00;;;5.88;59.56
55801;BME280;41730;51.960;20.158;2023-03-20T03:18:50;100058.08;;;5.86;59.49
55801;BME280;41730;51.960;20.158;2023-03-20T03:21:22;100058.20;;;5.84;59.53
55801;BME280;41730;51.960;20.158;2023-03-20T03:23:52;100056.56;;;5.72;59.83
55801;BME280;41730;51.960;20.158;2023-03-20T03:26:24;100055.35;;;5.61;59.99
55801;BME280;41730;51.960;20.158;2023-03-20T03:28:57;100051.94;;;5.52;60.28
55801;BME280;41730;51.960;20.158;2023-03-20T03:31:29;100052.08;;;5.50;60.54
55801;BME280;41730;51.960;20.158;2023-03-20T03:34:01;100052.48;;;5.54;60.43
55801;BME280;41730;51.960;20.158;2023-03-20T03:36:39;100050.81;;;5.48;60.55
55801;BME280;41730;51.960;20.158;2023-03-20T03:39:19;100051.77;;;5.44;60.65
55801;BME280;41730;51.960;20.158;2023-03-20T03:41:54;100045.77;;;5.56;60.45
55801;BME280;41730;51.960;20.158;2023-03-20T03:44:28;100045.38;;;5.64;60.14
55801;BME280;41730;51.960;20.158;2023-03-20T03:47:03;100043.43;;;5.60;60.14
55801;BME280;41730;51.960;20.158;2023-03-20T03:49:36;100043.27;;;5.54;60.37
55801;BME280;41730;51.960;20.158;2023-03-20T03:52:09;100045.30;;;5.44;60.63
55801;BME280;41730;51.960;20.158;2023-03-20T03:54:41;100043.00;;;5.45;60.67
55801;BME280;41730;51.960;20.158;2023-03-20T03:57:14;100041.31;;;5.47;60.59
55801;BME280;41730;51.960;20.158;2023-03-20T03:59:48;100038.83;;;5.50;60.48
55801;BME280;41730;51.960;20.158;2023-03-20T04:02:19;100036.39;;;5.53;60.35
55801;BME280;41730;51.960;20.158;2023-03-20T04:04:51;100033.95;;;5.53;60.36
55801;BME280;41730;51.960;20.158;2023-03-20T04:07:22;100034.81;;;5.59;60.45
55801;BME280;41730;51.960;20.158;2023-03-20T04:09:53;100033.66;;;5.55;60.32
55801;BME280;41730;51.960;20.158;2023-03-20T04:12:36;100036.15;;;5.46;60.39
55801;BME280;41730;51.960;20.158;2023-03-20T04:15:07;100036.25;;;5.44;60.37
55801;BME280;41730;51.960;20.158;2023-03-20T04:17:36;100028.45;;;5.33;60.46
55801;BME280;41730;51.960;20.158;2023-03-20T04:20:07;100038.92;;;5.32;60.63
55801;BME280;41730;51.960;20.158;2023-03-20T04:22:37;100037.58;;;5.29;60.71
55801;BME280;41730;51.960;20.158;2023-03-20T04:25:07;100035.73;;;5.19;61.08
55801;BME280;41730;51.960;20.158;2023-03-20T04:27:39;100034.48;;;5.03;61.24
55801;BME280;41730;51.960;20.158;2023-03-20T04:30:14;100038.05;;;5.10;61.34
55801;BME280;41730;51.960;20.158;2023-03-20T04:32:48;100036.16;;;5.10;61.42
55801;BME280;41730;51.960;20.158;2023-03-20T04:35:20;100040.57;;;5.12;61.30
55801;BME280;41730;51.960;20.158;2023-03-20T04:37:49;100040.96;;;5.27;60.93
55801;BME280;41730;51.960;20.158;2023-03-20T04:40:19;100039.77;;;5.36;60.84
55801;BME280;41730;51.960;20.158;2023-03-20T04:42:47;100040.68;;;5.35;60.79
55801;BME280;41730;51.960;20.158;2023-03-20T04:45:17;100043.92;;;5.24;61.09
55801;BME280;41730;51.960;20.158;2023-03-20T04:47:45;100043.19;;;5.25;61.07
55801;BME280;41730;51.960;20.158;2023-03-20T04:50:15;100044.02;;;5.31;61.01
55801;BME280;41730;51.960;20.158;2023-03-20T04:52:44;100044.70;;;5.21;61.26
55801;BME280;41730;51.960;20.158;2023-03-20T04:55:13;100042.65;;;5.17;61.26
55801;BME280;41730;51.960;20.158;2023-03-20T04:57:41;100044.25;;;5.11;61.57
55801;BME280;41730;51.960;20.158;2023-03-20T05:00:13;100050.95;;;5.07;61.70
55801;BME280;41730;51.960;20.158;2023-03-20T05:02:42;100048.49;;;5.10;61.81
55801;BME280;41730;51.960;20.158;2023-03-20T05:05:11;100048.38;;;5.26;61.52
55801;BME280;41730;51.960;20.158;2023-03-20T05:07:40;100049.19;;;5.21;61.57
55801;BME280;41730;51.960;20.158;2023-03-20T05:10:11;100046.05;;;5.13;61.84
55801;BME280;41730;51.960;20.158;2023-03-20T05:12:40;100050.45;;;5.18;61.98
55801;BME280;41730;51.960;20.158;2023-03-20T05:15:10;100052.54;;;5.23;61.76
55801;BME280;41730;51.960;20.158;2023-03-20T05:17:39;100055.79;;;5.27;61.83
55801;BME280;41730;51.960;20.158;2023-03-20T05:20:09;100061.92;;;5.34;61.96
55801;BME280;41730;51.960;20.158;2023-03-20T05:22:38;100058.61;;;5.48;61.98
55801;BME280;41730;51.960;20.158;2023-03-20T05:25:08;100056.33;;;5.70;62.30
55801;BME280;41730;51.960;20.158;2023-03-20T05:27:37;100050.89;;;5.92;62.81
55801;BME280;41730;51.960;20.158;2023-03-20T05:30:08;100047.11;;;6.26;62.90
55801;BME280;41730;51.960;20.158;2023-03-20T05:32:37;100051.52;;;6.58;62.68
55801;BME280;41730;51.960;20.158;2023-03-20T05:35:08;100051.85;;;6.84;62.59
55801;BME280;41730;51.960;20.158;2023-03-20T05:37:38;100049.71;;;7.17;62.28
55801;BME280;41730;51.960;20.158;2023-03-20T05:42:40;100047.86;;;7.69;61.24
55801;BME280;41730;51.960;20.158;2023-03-20T05:45:10;100048.33;;;7.75;61.07
55801;BME280;41730;51.960;20.158;2023-03-20T05:47:39;100049.16;;;7.73;60.93
55801;BME280;41730;51.960;20.158;2023-03-20T05:50:10;100048.98;;;7.75;60.79
55801;BME280;41730;51.960;20.158;2023-03-20T05:52:39;100052.73;;;7.69;60.71
55801;BME280;41730;51.960;20.158;2023-03-20T05:55:09;100055.73;;;7.67;60.75
55801;BME280;41730;51.960;20.158;2023-03-20T05:57:38;100058.56;;;7.71;60.51
55801;BME280;41730;51.960;20.158;2023-03-20T06:00:11;100055.80;;;7.80;60.39
55801;BME280;41730;51.960;20.158;2023-03-20T06:02:41;100059.58;;;7.85;60.37
55801;BME280;41730;51.960;20.158;2023-03-20T06:05:11;100062.59;;;7.87;60.06
55801;BME280;41730;51.960;20.158;2023-03-20T06:07:40;100055.49;;;7.79;60.19
55801;BME280;41730;51.960;20.158;2023-03-20T06:10:11;100061.91;;;7.73;60.42
55801;BME280;41730;51.960;20.158;2023-03-20T06:12:40;100063.19;;;7.74;60.75
55801;BME280;41730;51.960;20.158;2023-03-20T06:15:10;100069.27;;;7.89;60.47
55801;BME280;41730;51.960;20.158;2023-03-20T06:17:39;100069.70;;;8.11;60.21
55801;BME280;41730;51.960;20.158;2023-03-20T06:20:12;100068.55;;;8.34;60.34
55801;BME280;41730;51.960;20.158;2023-03-20T06:22:41;100069.75;;;8.41;60.49
55801;BME280;41730;51.960;20.158;2023-03-20T06:25:10;100073.20;;;8.56;60.19
55801;BME280;41730;51.960;20.158;2023-03-20T06:27:39;100074.54;;;8.63;60.19
55801;BME280;41730;51.960;20.158;2023-03-20T06:30:10;100078.25;;;8.72;60.06
55801;BME280;41730;51.960;20.158;2023-03-20T06:32:40;100075.80;;;8.86;59.82
55801;BME280;41730;51.960;20.158;2023-03-20T06:35:11;100079.31;;;8.90;59.67
55801;BME280;41730;51.960;20.158;2023-03-20T06:37:41;100079.90;;;8.91;59.79
55801;BME280;41730;51.960;20.158;2023-03-20T06:40:11;100079.79;;;8.98;60.13
55801;BME280;41730;51.960;20.158;2023-03-20T06:42:40;100082.60;;;9.15;59.34
55801;BME280;41730;51.960;20.158;2023-03-20T06:45:11;100083.92;;;9.16;59.49
55801;BME280;41730;51.960;20.158;2023-03-20T06:47:40;100086.21;;;9.25;59.38
55801;BME280;41730;51.960;20.158;2023-03-20T06:50:11;100080.58;;;9.36;59.22
55801;BME280;41730;51.960;20.158;2023-03-20T06:52:41;100085.58;;;9.48;59.07
55801;BME280;41730;51.960;20.158;2023-03-20T06:55:11;100082.70;;;9.65;58.89
55801;BME280;41730;51.960;20.158;2023-03-20T06:57:41;100077.96;;;9.78;58.94
55801;BME280;41730;51.960;20.158;2023-03-20T07:00:12;100082.43;;;10.02;58.92
55801;BME280;41730;51.960;20.158;2023-03-20T07:02:42;100074.62;;;10.27;58.72
55801;BME280;41730;51.960;20.158;2023-03-20T07:05:11;100078.73;;;10.34;58.68
55801;BME280;41730;51.960;20.158;2023-03-20T07:07:40;100073.64;;;10.41;58.86
55801;BME280;41730;51.960;20.158;2023-03-20T07:10:11;100073.95;;;10.74;58.57
55801;BME280;41730;51.960;20.158;2023-03-20T07:12:40;100072.73;;;11.01;58.26
55801;BME280;41730;51.960;20.158;2023-03-20T07:15:10;100070.98;;;11.29;58.03
55801;BME280;41730;51.960;20.158;2023-03-20T07:17:39;100072.11;;;11.61;57.88
55801;BME280;41730;51.960;20.158;2023-03-20T07:20:10;100074.26;;;11.81;57.20
55801;BME280;41730;51.960;20.158;2023-03-20T07:22:41;100070.44;;;12.08;57.04
55801;BME280;41730;51.960;20.158;2023-03-20T07:25:11;100071.24;;;12.37;56.55
55801;BME280;41730;51.960;20.158;2023-03-20T07:27:40;100068.23;;;12.54;56.63
55801;BME280;41730;51.960;20.158;2023-03-20T07:30:13;100070.61;;;12.91;56.20
55801;BME280;41730;51.960;20.158;2023-03-20T07:32:42;100073.88;;;13.16;55.77
55801;BME280;41730;51.960;20.158;2023-03-20T07:35:12;100076.13;;;13.44;55.26
55801;BME280;41730;51.960;20.158;2023-03-20T07:37:41;100079.14;;;13.57;54.44
55801;BME280;41730;51.960;20.158;2023-03-20T07:40:11;100075.91;;;13.66;54.25
55801;BME280;41730;51.960;20.158;2023-03-20T07:42:41;100076.21;;;13.65;54.13
55801;BME280;41730;51.960;20.158;2023-03-20T07:45:11;100073.05;;;13.80;53.88
55801;BME280;41730;51.960;20.158;2023-03-20T07:47:42;100071.64;;;13.89;53.99
55801;BME280;41730;51.960;20.158;2023-03-20T07:50:13;100075.95;;;14.14;53.42
55801;BME280;41730;51.960;20.158;2023-03-20T07:52:46;100076.27;;;14.34;52.96
55801;BME280;41730;51.960;20.158;2023-03-20T07:55:16;100070.38;;;14.52;52.69
55801;BME280;41730;51.960;20.158;2023-03-20T07:57:49;100070.60;;;14.64;52.63
55801;BME280;41730;51.960;20.158;2023-03-20T08:00:22;100073.34;;;14.82;52.71
55801;BME280;41730;51.960;20.158;2023-03-20T08:02:53;100068.77;;;15.20;52.07
55801;BME280;41730;51.960;20.158;2023-03-20T08:05:24;100068.81;;;15.53;51.43
55801;BME280;41730;51.960;20.158;2023-03-20T08:07:54;100067.20;;;15.85;50.75
55801;BME280;41730;51.960;20.158;2023-03-20T08:10:24;100068.70;;;15.97;49.87
55801;BME280;41730;51.960;20.158;2023-03-20T08:12:53;100070.74;;;16.01;49.97
55801;BME280;41730;51.960;20.158;2023-03-20T08:15:23;100072.40;;;16.06;49.60
55801;BME280;41730;51.960;20.158;2023-03-20T08:17:52;100064.59;;;16.03;48.75
55801;BME280;41730;51.960;20.158;2023-03-20T08:20:21;100072.93;;;15.94;48.27
55801;BME280;41730;51.960;20.158;2023-03-20T08:22:50;100070.88;;;15.87;48.07
55801;BME280;41730;51.960;20.158;2023-03-20T08:25:19;100075.19;;;15.94;47.93
55801;BME280;41730;51.960;20.158;2023-03-20T08:27:49;100075.88;;;16.06;47.89
55801;BME280;41730;51.960;20.158;2023-03-20T08:30:18;100079.57;;;16.21;47.94
55801;BME280;41730;51.960;20.158;2023-03-20T08:32:48;100078.91;;;16.22;47.85
55801;BME280;41730;51.960;20.158;2023-03-20T08:35:17;100080.17;;;16.17;47.84
55801;BME280;41730;51.960;20.158;2023-03-20T08:38:01;100079.30;;;16.27;48.04
55801;BME280;41730;51.960;20.158;2023-03-20T08:40:30;100082.05;;;16.28;47.72
55801;BME280;41730;51.960;20.158;2023-03-20T08:42:59;100086.67;;;16.18;47.90
55801;BME280;41730;51.960;20.158;2023-03-20T08:45:29;100090.16;;;16.13;47.64
55801;BME280;41730;51.960;20.158;2023-03-20T08:47:59;100091.17;;;16.07;46.93
55801;BME280;41730;51.960;20.158;2023-03-20T08:50:28;100088.23;;;15.88;47.03
55801;BME280;41730;51.960;20.158;2023-03-20T08:52:58;100095.59;;;15.74;47.49
55801;BME280;41730;51.960;20.158;2023-03-20T08:55:28;100091.61;;;15.72;47.84
55801;BME280;41730;51.960;20.158;2023-03-20T08:57:59;100090.73;;;15.70;47.50
55801;BME280;41730;51.960;20.158;2023-03-20T09:00:29;100090.34;;;15.56;47.53
55801;BME280;41730;51.960;20.158;2023-03-20T09:02:59;100092.55;;;15.49;47.70
55801;BME280;41730;51.960;20.158;2023-03-20T09:05:28;100090.48;;;15.40;47.58
55801;BME280;41730;51.960;20.158;2023-03-20T09:08:00;100089.98;;;15.31;47.85
55801;BME280;41730;51.960;20.158;2023-03-20T09:10:29;100093.42;;;15.34;47.82
55801;BME280;41730;51.960;20.158;2023-03-20T09:12:58;100094.33;;;15.39;47.75
55801;BME280;41730;51.960;20.158;2023-03-20T09:15:28;100093.13;;;15.45;47.79
55801;BME280;41730;51.960;20.158;2023-03-20T09:17:57;100097.61;;;15.48;47.85
55801;BME280;41730;51.960;20.158;2023-03-20T09:20:26;100097.31;;;15.44;47.94
55801;BME280;41730;51.960;20.158;2023-03-20T09:22:56;100096.83;;;15.47;47.89
55801;BME280;41730;51.960;20.158;2023-03-20T09:25:25;100096.90;;;15.53;47.76
55801;BME280;41730;51.960;20.158;2023-03-20T09:27:54;100099.68;;;15.52;47.86
55801;BME280;41730;51.960;20.158;2023-03-20T09:30:24;100094.48;;;15.49;47.79
55801;BME280;41730;51.960;20.158;2023-03-20T09:32:53;100097.09;;;15.48;47.60
55801;BME280;41730;51.960;20.158;2023-03-20T09:35:22;100096.85;;;15.37;47.60
55801;BME280;41730;51.960;20.158;2023-03-20T09:37:51;100096.23;;;15.34;47.79
55801;BME280;41730;51.960;20.158;2023-03-20T09:40:25;100098.23;;;15.37;47.67
55801;BME280;41730;51.960;20.158;2023-03-20T09:43:03;100099.34;;;15.38;47.63
55801;BME280;41730;51.960;20.158;2023-03-20T09:45:41;100100.95;;;15.45;47.42
55801;BME280;41730;51.960;20.158;2023-03-20T09:48:17;100098.78;;;15.50;47.35
55801;BME280;41730;51.960;20.158;2023-03-20T09:50:53;100104.79;;;15.52;47.24
55801;BME280;41730;51.960;20.158;2023-03-20T09:53:30;100100.48;;;15.56;47.44
55801;BME280;41730;51.960;20.158;2023-03-20T09:56:13;100100.53;;;15.59;47.48
55801;BME280;41730;51.960;20.158;2023-03-20T09:59:00;100102.08;;;15.61;47.49
55801;BME280;41730;51.960;20.158;2023-03-20T10:01:34;100101.05;;;15.73;47.46
55801;BME280;41730;51.960;20.158;2023-03-20T10:04:09;100107.09;;;15.79;47.32
55801;BME280;41730;51.960;20.158;2023-03-20T10:06:39;100104.77;;;15.76;47.32
55801;BME280;41730;51.960;20.158;2023-03-20T10:09:15;100104.41;;;15.78;47.33
55801;BME280;41730;51.960;20.158;2023-03-20T10:12:00;100103.05;;;15.79;47.21
55801;BME280;41730;51.960;20.158;2023-03-20T10:14:40;100102.70;;;15.85;47.23
55801;BME280;41730;51.960;20.158;2023-03-20T10:17:22;100096.34;;;15.95;47.13
55801;BME280;41730;51.960;20.158;2023-03-20T10:20:09;100096.71;;;16.00;46.91
55801;BME280;41730;51.960;20.158;2023-03-20T10:22:43;100096.08;;;15.92;46.68
55801;BME280;41730;51.960;20.158;2023-03-20T10:25:25;100097.16;;;15.89;46.50
55801;BME280;41730;51.960;20.158;2023-03-20T10:27:58;100100.32;;;15.93;46.66
55801;BME280;41730;51.960;20.158;2023-03-20T10:30:42;100101.15;;;15.95;46.32
55801;BME280;41730;51.960;20.158;2023-03-20T10:33:24;100099.77;;;15.94;46.47
55801;BME280;41730;51.960;20.158;2023-03-20T10:36:06;100099.26;;;15.96;46.19
55801;BME280;41730;51.960;20.158;2023-03-20T10:38:42;100094.62;;;15.96;46.15
55801;BME280;41730;51.960;20.158;2023-03-20T10:41:16;100092.38;;;16.01;46.03
55801;BME280;41730;51.960;20.158;2023-03-20T10:43:48;100092.04;;;16.04;46.06
55801;BME280;41730;51.960;20.158;2023-03-20T10:46:22;100091.64;;;16.11;46.34
55801;BME280;41730;51.960;20.158;2023-03-20T10:48:57;100090.22;;;16.19;46.35
55801;BME280;41730;51.960;20.158;2023-03-20T10:51:37;100083.97;;;16.28;46.09
55801;BME280;41730;51.960;20.158;2023-03-20T10:54:17;100083.61;;;16.30;45.87
55801;BME280;41730;51.960;20.158;2023-03-20T10:56:49;100083.91;;;16.27;45.87
55801;BME280;41730;51.960;20.158;2023-03-20T10:59:24;100085.17;;;16.17;45.96
55801;BME280;41730;51.960;20.158;2023-03-20T11:01:54;100081.95;;;16.20;46.16
55801;BME280;41730;51.960;20.158;2023-03-20T11:04:23;100082.78;;;16.21;45.89
55801;BME280;41730;51.960;20.158;2023-03-20T11:06:58;100080.89;;;16.29;45.77
55801;BME280;41730;51.960;20.158;2023-03-20T11:09:28;100080.02;;;16.33;45.74
55801;BME280;41730;51.960;20.158;2023-03-20T11:12:04;100078.67;;;16.28;45.85
55801;BME280;41730;51.960;20.158;2023-03-20T11:14:39;100075.05;;;16.30;45.64
55801;BME280;41730;51.960;20.158;2023-03-20T11:17:12;100074.98;;;16.37;45.81
55801;BME280;41730;51.960;20.158;2023-03-20T11:19:44;100067.95;;;16.33;46.01
55801;BME280;41730;51.960;20.158;2023-03-20T11:22:27;100071.72;;;16.45;46.03
55801;BME280;41730;51.960;20.158;2023-03-20T11:25:01;100073.69;;;16.52;46.22
55801;BME280;41730;51.960;20.158;2023-03-20T11:27:38;100074.29;;;16.60;46.06
55801;BME280;41730;51.960;20.158;2023-03-20T11:30:14;100067.55;;;16.62;46.14
55801;BME280;41730;51.960;20.158;2023-03-20T11:32:49;100068.06;;;16.67;46.21
55801;BME280;41730;51.960;20.158;2023-03-20T11:35:26;100061.41;;;16.69;46.21
55801;BME280;41730;51.960;20.158;2023-03-20T11:38:12;100061.69;;;16.65;46.29
55801;BME280;41730;51.960;20.158;2023-03-20T11:40:41;100070.92;;;16.60;46.53
55801;BME280;41730;51.960;20.158;2023-03-20T11:43:13;100068.45;;;16.55;46.58
55801;BME280;41730;51.960;20.158;2023-03-20T11:45:43;100064.45;;;16.46;47.00
55801;BME280;41730;51.960;20.158;2023-03-20T11:48:19;100063.21;;;16.51;46.99
55801;BME280;41730;51.960;20.158;2023-03-20T11:50:55;100061.18;;;16.66;46.65
55801;BME280;41730;51.960;20.158;2023-03-20T11:53:29;100054.54;;;16.69;46.59
55801;BME280;41730;51.960;20.158;2023-03-20T11:56:03;100052.23;;;16.73;46.54
55801;BME280;41730;51.960;20.158;2023-03-20T11:58:34;100054.79;;;16.76;46.46
55801;BME280;41730;51.960;20.158;2023-03-20T12:01:07;100053.53;;;16.78;46.33
55801;BME280;41730;51.960;20.158;2023-03-20T12:03:49;100050.16;;;16.73;46.58
55801;BME280;41730;51.960;20.158;2023-03-20T12:06:21;100047.80;;;16.70;46.68
55801;BME280;41730;51.960;20.158;2023-03-20T12:08:57;100044.27;;;16.67;46.95
55801;BME280;41730;51.960;20.158;2023-03-20T12:11:45;100044.66;;;16.67;46.78
55801;BME280;41730;51.960;20.158;2023-03-20T12:14:24;100045.80;;;16.72;46.72
55801;BME280;41730;51.960;20.158;2023-03-20T12:17:24;100039.56;;;16.71;46.86
55801;BME280;41730;51.960;20.158;2023-03-20T12:19:58;100043.45;;;16.76;46.72
55801;BME280;41730;51.960;20.158;2023-03-20T12:22:32;100038.58;;;16.69;46.77
55801;BME280;41730;51.960;20.158;2023-03-20T12:25:07;100037.98;;;16.71;46.66
55801;BME280;41730;51.960;20.158;2023-03-20T12:27:48;100035.89;;;16.87;46.75
55801;BME280;41730;51.960;20.158;2023-03-20T12:30:29;100037.64;;;16.97;46.62
55801;BME280;41730;51.960;20.158;2023-03-20T12:33:03;100036.61;;;16.98;46.73
55801;BME280;41730;51.960;20.158;2023-03-20T12:35:39;100034.79;;;16.95;46.80
55801;BME280;41730;51.960;20.158;2023-03-20T12:38:17;100031.10;;;16.89;46.85
55801;BME280;41730;51.960;20.158;2023-03-20T12:40:52;100037.55;;;16.87;47.08
55801;BME280;41730;51.960;20.158;2023-03-20T12:43:25;100037.08;;;16.76;47.44
55801;BME280;41730;51.960;20.158;2023-03-20T12:46:02;100033.16;;;16.70;47.46
55801;BME280;41730;51.960;20.158;2023-03-20T12:48:51;100030.73;;;16.60;47.59
55801;BME280;41730;51.960;20.158;2023-03-20T12:51:30;100029.38;;;16.70;47.36
55801;BME280;41730;51.960;20.158;2023-03-20T12:54:13;100036.86;;;16.67;47.25
55801;BME280;41730;51.960;20.158;2023-03-20T12:57:03;100038.79;;;16.66;47.46
55801;BME280;41730;51.960;20.158;2023-03-20T12:59:48;100035.86;;;16.68;47.65
55801;BME280;41730;51.960;20.158;2023-03-20T13:02:28;100035.02;;;16.61;47.70
55801;BME280;41730;51.960;20.158;2023-03-20T13:05:04;100037.53;;;16.53;47.81
55801;BME280;41730;51.960;20.158;2023-03-20T13:07:51;100033.70;;;16.52;47.95
55801;BME280;41730;51.960;20.158;2023-03-20T13:10:29;100034.27;;;16.50;48.00
55801;BME280;41730;51.960;20.158;2023-03-20T13:13:09;100036.23;;;16.32;48.38
55801;BME280;41730;51.960;20.158;2023-03-20T13:15:50;100032.80;;;16.18;48.96
55801;BME280;41730;51.960;20.158;2023-03-20T13:18:32;100040.98;;;16.12;48.89
55801;BME280;41730;51.960;20.158;2023-03-20T13:21:07;100034.35;;;16.00;49.44
55801;BME280;41730;51.960;20.158;2023-03-20T13:23:45;100034.64;;;15.93;49.58
55801;BME280;41730;51.960;20.158;2023-03-20T13:26:31;100029.81;;;15.97;49.66